Дата Пункты Температура Давл., мм. Влажн., % Ветер Погодные явления
Воздуха Воды Направл. Скорость
03.10.17 12:00 Одесса 13.0 15.0 767 65 В 4 12 часов
03.10.17 09:00 Одесса 12.0 15.0 767 68 В 5 09 часов
03.10.17 06:00 Одесса 12.0 15.0 767 66 В 4 06 часов
03.10.17 03:00 Одесса 8.0 15.0 767 74 С-З 1 03 часа
02.10.17 09:00 Одесса 9.0 15.0 768 63 С-З 1 21 час
02.10.17 06:00 Одесса 12.0 15.0 768 53 С-В 3 18 часов
02.10.17 03:00 Одесса 12.0 15.0 768 54 В 2 15 часов
02.10.17 12:00 Одесса 12.0 16.0 768 51 С-В 4 12 часов
02.10.17 09:00 Одесса 11.0 16.0 768 64 С-В 4 09 часов
02.10.17 06:00 Одесса 11.0 16.0 768 67 С-В 4 06 часов
02.10.17 03:00 Одесса 12.0 16.0 767 63 С-В 7 03 часа
01.10.17 09:00 Одесса 13.0 16.0 767 55 С-В 9 21 час
01.10.17 06:00 Одесса 13.0 16.0 766 54 С-В 3 18 часов
01.10.17 03:00 Одесса 13.0 16.0 766 53 В 4 15 часов
01.10.17 12:00 Одесса 12.0 16.0 767 62 В 7 12 часов
01.10.17 09:00 Одесса 9.0 16.0 767 76 С-В 6 09 часов
01.10.17 06:00 Одесса 7.0 14.0 766 83 С 5 06 часов
01.10.17 03:00 Одесса 9.0 14.0 766 74 С-В 7 03 часа
30.09.17 09:00 Одесса 15.0 14.0 765 48 С-В 8 21 час
30.09.17 06:00 Одесса 15.0 16.0 764 40 С-В 7 18 часов
Количество строк
1 2 3 4 5 6 7 8 9 10
Page 6 of 284